Flight Track Log - Related Links

Times and Time Zones

All times are in EDT time to prevent confusion due to time zone crossing. See the RPA3392 flight status page for this flight to view local times or setup timezone preferences in your user account.

Time Position Orientation Groundspeed Altitude Reporting Facility
EDT Latitude Longitude Course Direction KTS MPH feet Rate Location/Type
Tue 10:10:13 PM 38.8733 -77.0500 61° Northeast 154 177 1,100  Level Washington Center
Tue 10:11:13 PM 38.9081 -77.0936 316° Northwest 177 204 3,400 2,430 Climbing Washington Center
Tue 10:12:00 PM 38.9657 -76.6861 67° East  Level FlightAware Approximate
Tue 10:12:14 PM 38.9556 -77.1453 320° Northwest 198 228 6,000  Level Washington Center
Tue 10:13:00 PM 39.0138 -76.5724 57° Northeast  Level FlightAware Approximate
Tue 10:13:14 PM 39.0161 -77.1197 18° North 186 214 8,800  Level Washington Center
Tue 10:14:00 PM 39.0578 -76.4556 63° Northeast  Level FlightAware Approximate
Tue 10:14:15 PM 39.0672 -77.0325 53° Northeast 223 257 10,500  Level Washington Center
Tue 10:15:00 PM 39.1061 -76.3414 61° Northeast  Level FlightAware Approximate
Tue 10:15:13 PM 39.0814 -76.8992 82° East 278 320 12,300  Level Washington Center
Tue 10:16:13 PM 39.0933 -76.7631 84° East 340 391 14,200 1,884 Climbing Washington Center
Tue 10:17:14 PM 39.1069 -76.6189 83° East 365 420 16,100 1,672 Climbing Washington Center
Tue 10:18:15 PM 39.1228 -76.4744 82° East 398 458 17,600 1,563 Climbing Washington Center
Tue 10:19:13 PM 39.1383 -76.3222 82° East 414 476 19,200 1,513 Climbing Washington Center
Tue 10:20:14 PM 39.1558 -76.1644 82° East 426 490 20,600 1,250 Climbing Washington Center
Tue 10:21:13 PM 39.1856 -76.0092 76° East 438 504 21,700 1,200 Climbing Washington Center
Tue 10:22:14 PM 39.2589 -75.8892 52° Northeast 419 482 23,000 1,190 Climbing Washington Center
Tue 10:23:14 PM 39.3383 -75.7686 50° Northeast 426 490 24,100 1,160 Climbing Washington Center
Tue 10:24:13 PM 39.4197 -75.6453 49° Northeast 438 504 25,300 1,050 Climbing Washington Center
Tue 10:25:14 PM 39.5011 -75.5189 50° Northeast 444 511 26,200 1,066 Climbing Washington Center
Tue 10:27:30 PM 39.6806 -75.2458 49° Northeast 459 528 28,800 857 Climbing New York Center
Tue 10:28:30 PM 39.7733 -75.1086 49° Northeast 466 536 29,000 101 Climbing New York Center
Tue 10:29:29 PM 39.8611 -74.9817 48° Northeast 466 536 29,000  Level New York Center
Tue 10:30:29 PM 39.9508 -74.8650 45° Northeast 460 529 29,000  Level New York Center
Tue 10:31:29 PM 40.0356 -74.7644 42° Northeast 454 522 29,000  Level New York Center
Tue 10:32:31 PM 40.1419 -74.6375 42° Northeast 454 522 29,000  Level New York Center
Tue 10:33:30 PM 40.2286 -74.5361 42° Northeast 460 529 29,000  Level New York Center
Tue 10:34:30 PM 40.3347 -74.4086 42° Northeast 460 529 29,000  Level New York Center
Tue 10:35:31 PM 40.4297 -74.2964 42° Northeast 460 529 29,000  Level New York Center
Tue 10:36:31 PM 40.5228 -74.1839 43° Northeast 460 529 29,000 -1,098 Level New York Center
Tue 10:38:15 PM 40.6914 -73.9839 42° Northeast 454 522 26,000 -1,793 Descending Boston Center
Tue 10:39:15 PM 40.7675 -73.8953 41° Northeast 448 516 24,100 -1,000 Descending Boston Center
Tue 10:40:15 PM 40.8775 -73.7606 43° Northeast 448 516 24,000 -500 Descending Boston Center
Tue 10:41:15 PM 40.9806 -73.6828 30° Northeast 448 516 23,100 -500 Descending Boston Center
Tue 10:42:15 PM 41.0908 -73.6931 356° North 384 442 23,000 -200 Descending Boston Center
Tue 10:43:15 PM 41.1992 -73.6981 358° North 384 442 22,700 -850 Descending Boston Center
Tue 10:44:15 PM 41.3075 -73.7058 357° North 384 442 21,300 -1,350 Descending Boston Center
Tue 10:45:15 PM 41.4158 -73.7106 358° North 384 442 20,000 -1,250 Descending Boston Center
Tue 10:46:15 PM 41.5094 -73.7181 357° North 375 432 18,800 -1,450 Descending Boston Center
Tue 10:47:15 PM 41.6242 -73.7258 357° North 369 425 17,100 -1,450 Descending Boston Center
Tue 10:48:15 PM 41.7156 -73.7333 356° North 363 418 15,900 -1,300 Descending Boston Center
Tue 10:49:15 PM 41.8281 -73.7411 357° North 363 418 14,500 -1,333 Descending Boston Center
Tue 10:50:12 PM 41.9219 -73.7431 359° North 363 418 13,300 -1,200 Descending Boston Center
Tue 10:51:15 PM 42.0219 -73.7508 357° North 353 406 12,100 -1,073 Descending Boston Center
Tue 10:52:15 PM 42.1156 -73.7583 357° North 339 390 11,100 -500 Descending Boston Center
Tue 10:53:15 PM 42.2008 -73.7658 356° North 339 390 11,100 -100 Level Boston Center
Tue 10:54:15 PM 42.2925 -73.7706 358° North 308 354 10,900 -900 Descending Boston Center
Tue 10:55:15 PM 42.3553 -73.7464 16° North 269 310 9,300 -1,800 Descending Boston Center
Tue 10:56:15 PM 42.4269 -73.6889 31° Northeast 261 300 7,300 -1,900 Descending Boston Center
Tue 10:57:15 PM 42.4836 -73.6367 34° Northeast 272 313 5,500 -1,600 Descending Boston Center
Tue 10:58:15 PM 42.5511 -73.5786 32° Northeast 267 307 4,100 -750 Descending Boston Center
Tue 10:59:15 PM 42.6056 -73.5317 32° Northeast 257 296 4,000 -50 Descending Boston Center
Tue 11:00:15 PM 42.6667 -73.4792 32° Northeast 246 283 4,000 -240 Level Boston Center
Tue 11:00:30 PM 42.6792 -73.4708 26° Northeast 224 258 3,700 -500 Descending Boston Center
Tue 11:01:15 PM 42.7169 -73.4433 28° Northeast 229 264 3,500 -295 Descending Boston Center
Tue 11:01:31 PM 42.7397 -73.4522 344° North 214 246 3,400 -100 Descending Boston Center
Tue 11:02:15 PM 42.7708 -73.4611 348° North 186 214 3,400  Level Boston Center
Tue 11:02:31 PM 42.7686 -73.4781 260° West 145 167 3,400 -300 Level Boston Center
Tue 11:03:15 PM 42.7558 -73.5089 241° Southwest 109 125 3,100 -295 Descending Boston Center
Tue 11:03:32 PM 42.7578 -73.5289 278° West 143 165 3,100 -200 Level Boston Center
Tue 11:04:15 PM 42.7533 -73.5683 261° West 134 154 2,900 -400 Descending Boston Center
Tue 11:04:32 PM 42.7531 -73.5825 268° West 147 169 2,700 -462 Descending Boston Center
Tue 11:05:33 PM 42.7525 -73.6389 269° West 147 169 2,300 -470 Descending Boston Center
Tue 11:06:27 PM 42.7519 -73.6897 269° West 148 170 1,800 -556 Descending Boston Center

Login

Don't have an account? Register now (free) for customized features, flight alerts, and more!